sensor_id;sensor_type;location;lat;lon;timestamp;temperature;humidity
14877;DHT22;22152;48.158;17.118;2023-03-14T00:01:10;9.80;67.40
14877;DHT22;22152;48.158;17.118;2023-03-14T00:04:00;9.80;67.70
14877;DHT22;22152;48.158;17.118;2023-03-14T00:06:39;9.70;68.00
14877;DHT22;22152;48.158;17.118;2023-03-14T00:09:25;9.70;67.90
14877;DHT22;22152;48.158;17.118;2023-03-14T00:12:12;9.60;68.40
14877;DHT22;22152;48.158;17.118;2023-03-14T00:15:05;9.50;68.70
14877;DHT22;22152;48.158;17.118;2023-03-14T00:17:39;9.50;69.00
14877;DHT22;22152;48.158;17.118;2023-03-14T00:20:35;9.50;69.20
14877;DHT22;22152;48.158;17.118;2023-03-14T00:23:07;9.50;69.30
14877;DHT22;22152;48.158;17.118;2023-03-14T00:26:04;9.50;69.50
14877;DHT22;22152;48.158;17.118;2023-03-14T00:28:40;9.50;69.70
14877;DHT22;22152;48.158;17.118;2023-03-14T00:31:34;9.50;69.90
14877;DHT22;22152;48.158;17.118;2023-03-14T00:34:08;9.50;69.90
14877;DHT22;22152;48.158;17.118;2023-03-14T00:37:01;9.50;69.80
14877;DHT22;22152;48.158;17.118;2023-03-14T00:39:33;9.50;70.10
14877;DHT22;22152;48.158;17.118;2023-03-14T00:42:26;9.50;69.80
14877;DHT22;22152;48.158;17.118;2023-03-14T00:44:59;9.50;69.80
14877;DHT22;22152;48.158;17.118;2023-03-14T00:47:53;9.50;69.90
14877;DHT22;22152;48.158;17.118;2023-03-14T00:50:25;9.50;70.00
14877;DHT22;22152;48.158;17.118;2023-03-14T00:53:18;9.50;70.00
14877;DHT22;22152;48.158;17.118;2023-03-14T00:55:50;9.40;70.10
14877;DHT22;22152;48.158;17.118;2023-03-14T00:58:44;9.50;70.10
14877;DHT22;22152;48.158;17.118;2023-03-14T01:01:23;9.50;69.90
14877;DHT22;22152;48.158;17.118;2023-03-14T01:04:10;9.40;70.20
14877;DHT22;22152;48.158;17.118;2023-03-14T01:06:49;9.50;70.60
14877;DHT22;22152;48.158;17.118;2023-03-14T01:09:35;9.50;70.30
14877;DHT22;22152;48.158;17.118;2023-03-14T01:12:21;9.50;70.20
14877;DHT22;22152;48.158;17.118;2023-03-14T01:15:14;9.60;70.40
14877;DHT22;22152;48.158;17.118;2023-03-14T01:17:47;9.60;69.80
14877;DHT22;22152;48.158;17.118;2023-03-14T01:20:40;9.50;70.20
14877;DHT22;22152;48.158;17.118;2023-03-14T01:23:12;9.50;70.40
14877;DHT22;22152;48.158;17.118;2023-03-14T01:26:09;9.50;70.40
14877;DHT22;22152;48.158;17.118;2023-03-14T01:28:42;9.50;70.50
14877;DHT22;22152;48.158;17.118;2023-03-14T01:31:35;9.50;70.40
14877;DHT22;22152;48.158;17.118;2023-03-14T01:34:07;9.50;70.50
14877;DHT22;22152;48.158;17.118;2023-03-14T01:37:01;9.50;70.50
14877;DHT22;22152;48.158;17.118;2023-03-14T01:39:34;9.50;70.70
14877;DHT22;22152;48.158;17.118;2023-03-14T01:42:27;9.50;70.80
14877;DHT22;22152;48.158;17.118;2023-03-14T01:45:01;9.50;71.00
14877;DHT22;22152;48.158;17.118;2023-03-14T01:47:54;9.40;71.00
14877;DHT22;22152;48.158;17.118;2023-03-14T01:50:26;9.40;71.20
14877;DHT22;22152;48.158;17.118;2023-03-14T01:53:19;9.40;71.20
14877;DHT22;22152;48.158;17.118;2023-03-14T01:55:54;9.50;71.30
14877;DHT22;22152;48.158;17.118;2023-03-14T01:58:51;9.60;71.20
14877;DHT22;22152;48.158;17.118;2023-03-14T02:01:31;9.60;71.00
14877;DHT22;22152;48.158;17.118;2023-03-14T02:04:17;9.60;70.90
14877;DHT22;22152;48.158;17.118;2023-03-14T02:07:09;9.70;71.00
14877;DHT22;22152;48.158;17.118;2023-03-14T02:10:10;9.70;70.70
14877;DHT22;22152;48.158;17.118;2023-03-14T02:12:59;9.70;70.80
14877;DHT22;22152;48.158;17.118;2023-03-14T02:16:19;9.80;71.60
14877;DHT22;22152;48.158;17.118;2023-03-14T02:19:12;9.80;70.50
14877;DHT22;22152;48.158;17.118;2023-03-14T02:22:20;9.80;70.60
14877;DHT22;22152;48.158;17.118;2023-03-14T02:28:14;9.90;71.30
14877;DHT22;22152;48.158;17.118;2023-03-14T02:30:51;10.00;69.20
14877;DHT22;22152;48.158;17.118;2023-03-14T02:33:47;10.00;69.00
14877;DHT22;22152;48.158;17.118;2023-03-14T02:36:21;10.00;69.00
14877;DHT22;22152;48.158;17.118;2023-03-14T02:42:09;10.00;68.70
14877;DHT22;22152;48.158;17.118;2023-03-14T02:47:46;9.90;69.80
14877;DHT22;22152;48.158;17.118;2023-03-14T02:50:46;9.80;69.70
14877;DHT22;22152;48.158;17.118;2023-03-14T02:53:25;9.80;70.10
14877;DHT22;22152;48.158;17.118;2023-03-14T02:56:23;9.90;70.10
14877;DHT22;22152;48.158;17.118;2023-03-14T02:58:55;9.90;69.80
14877;DHT22;22152;48.158;17.118;2023-03-14T03:01:56;9.90;69.70
14877;DHT22;22152;48.158;17.118;2023-03-14T03:04:28;9.90;69.90
14877;DHT22;22152;48.158;17.118;2023-03-14T03:07:21;9.90;69.80
14877;DHT22;22152;48.158;17.118;2023-03-14T03:09:55;9.90;70.20
14877;DHT22;22152;48.158;17.118;2023-03-14T03:12:49;9.90;70.20
14877;DHT22;22152;48.158;17.118;2023-03-14T03:15:42;10.00;68.70
14877;DHT22;22152;48.158;17.118;2023-03-14T03:18:15;10.00;68.40
14877;DHT22;22152;48.158;17.118;2023-03-14T03:21:09;10.10;68.30
14877;DHT22;22152;48.158;17.118;2023-03-14T03:23:42;10.10;68.90
14877;DHT22;22152;48.158;17.118;2023-03-14T03:26:36;10.10;68.20
14877;DHT22;22152;48.158;17.118;2023-03-14T03:29:09;10.20;68.20
14877;DHT22;22152;48.158;17.118;2023-03-14T03:32:03;10.20;67.90
14877;DHT22;22152;48.158;17.118;2023-03-14T03:34:35;10.20;68.00
14877;DHT22;22152;48.158;17.118;2023-03-14T03:37:30;10.20;67.90
14877;DHT22;22152;48.158;17.118;2023-03-14T03:40:06;10.30;67.60
14877;DHT22;22152;48.158;17.118;2023-03-14T03:43:00;10.40;67.40
14877;DHT22;22152;48.158;17.118;2023-03-14T03:45:35;10.40;67.60
14877;DHT22;22152;48.158;17.118;2023-03-14T03:48:28;10.40;67.50
14877;DHT22;22152;48.158;17.118;2023-03-14T03:51:02;10.40;67.10
14877;DHT22;22152;48.158;17.118;2023-03-14T03:53:56;10.40;67.00
14877;DHT22;22152;48.158;17.118;2023-03-14T03:56:32;10.40;66.90
14877;DHT22;22152;48.158;17.118;2023-03-14T03:59:25;10.30;67.00
14877;DHT22;22152;48.158;17.118;2023-03-14T04:02:04;10.30;67.20
14877;DHT22;22152;48.158;17.118;2023-03-14T04:04:50;10.20;67.40
14877;DHT22;22152;48.158;17.118;2023-03-14T04:07:32;10.20;67.50
14877;DHT22;22152;48.158;17.118;2023-03-14T04:10:21;10.20;67.20
14877;DHT22;22152;48.158;17.118;2023-03-14T04:13:30;10.10;66.70
14877;DHT22;22152;48.158;17.118;2023-03-14T04:16:24;10.10;67.50
14877;DHT22;22152;48.158;17.118;2023-03-14T04:19:07;10.10;67.70
14877;DHT22;22152;48.158;17.118;2023-03-14T04:22:01;10.00;67.80
14877;DHT22;22152;48.158;17.118;2023-03-14T04:24:41;10.00;68.20
14877;DHT22;22152;48.158;17.118;2023-03-14T04:27:34;10.00;67.80
14877;DHT22;22152;48.158;17.118;2023-03-14T04:30:15;9.90;69.10
14877;DHT22;22152;48.158;17.118;2023-03-14T04:33:11;10.00;67.80
14877;DHT22;22152;48.158;17.118;2023-03-14T04:35:53;10.00;67.70
14877;DHT22;22152;48.158;17.118;2023-03-14T04:38:47;9.90;68.70
14877;DHT22;22152;48.158;17.118;2023-03-14T04:41:20;9.90;69.20
14877;DHT22;22152;48.158;17.118;2023-03-14T04:44:15;9.90;69.00
14877;DHT22;22152;48.158;17.118;2023-03-14T04:46:50;9.80;69.80
14877;DHT22;22152;48.158;17.118;2023-03-14T04:49:43;9.80;69.20
14877;DHT22;22152;48.158;17.118;2023-03-14T04:52:16;9.80;69.20
14877;DHT22;22152;48.158;17.118;2023-03-14T04:55:09;9.70;69.10
14877;DHT22;22152;48.158;17.118;2023-03-14T04:57:42;9.60;69.50
14877;DHT22;22152;48.158;17.118;2023-03-14T05:00:35;9.60;69.60
14877;DHT22;22152;48.158;17.118;2023-03-14T05:03:33;9.60;69.90
14877;DHT22;22152;48.158;17.118;2023-03-14T05:06:18;9.50;70.00
14877;DHT22;22152;48.158;17.118;2023-03-14T05:09:07;9.50;70.10
14877;DHT22;22152;48.158;17.118;2023-03-14T05:12:16;9.40;70.00
14877;DHT22;22152;48.158;17.118;2023-03-14T05:15:16;9.40;70.40
14877;DHT22;22152;48.158;17.118;2023-03-14T05:18:10;9.30;70.60
14877;DHT22;22152;48.158;17.118;2023-03-14T05:21:10;9.20;71.10
14877;DHT22;22152;48.158;17.118;2023-03-14T05:24:31;9.20;71.10
14877;DHT22;22152;48.158;17.118;2023-03-14T05:27:22;9.20;70.40
14877;DHT22;22152;48.158;17.118;2023-03-14T05:30:27;9.10;71.60
14877;DHT22;22152;48.158;17.118;2023-03-14T05:33:29;9.10;71.70
14877;DHT22;22152;48.158;17.118;2023-03-14T05:36:32;9.10;71.70
14877;DHT22;22152;48.158;17.118;2023-03-14T05:39:34;9.20;72.70
14877;DHT22;22152;48.158;17.118;2023-03-14T05:42:38;9.20;71.70
14877;DHT22;22152;48.158;17.118;2023-03-14T05:45:46;9.20;71.70
14877;DHT22;22152;48.158;17.118;2023-03-14T05:48:51;9.20;71.90
14877;DHT22;22152;48.158;17.118;2023-03-14T05:52:09;9.30;72.10
14877;DHT22;22152;48.158;17.118;2023-03-14T05:55:05;9.30;71.80
14877;DHT22;22152;48.158;17.118;2023-03-14T05:58:20;9.40;72.10
14877;DHT22;22152;48.158;17.118;2023-03-14T06:01:14;9.50;71.80
14877;DHT22;22152;48.158;17.118;2023-03-14T06:04:10;9.60;71.50
14877;DHT22;22152;48.158;17.118;2023-03-14T06:07:00;9.50;71.40
14877;DHT22;22152;48.158;17.118;2023-03-14T06:09:40;9.60;71.50
14877;DHT22;22152;48.158;17.118;2023-03-14T06:12:25;9.60;71.80
14877;DHT22;22152;48.158;17.118;2023-03-14T06:15:19;9.60;71.70
14877;DHT22;22152;48.158;17.118;2023-03-14T06:17:55;9.60;72.00
14877;DHT22;22152;48.158;17.118;2023-03-14T06:20:47;9.70;71.80
14877;DHT22;22152;48.158;17.118;2023-03-14T06:23:23;9.80;71.70
14877;DHT22;22152;48.158;17.118;2023-03-14T06:26:17;9.90;71.30
14877;DHT22;22152;48.158;17.118;2023-03-14T06:28:50;9.90;71.10
14877;DHT22;22152;48.158;17.118;2023-03-14T06:31:42;10.00;70.70
14877;DHT22;22152;48.158;17.118;2023-03-14T06:34:17;10.20;69.60
14877;DHT22;22152;48.158;17.118;2023-03-14T06:37:09;10.30;69.40
14877;DHT22;22152;48.158;17.118;2023-03-14T06:39:44;10.50;69.00
14877;DHT22;22152;48.158;17.118;2023-03-14T06:42:57;10.50;68.90
14877;DHT22;22152;48.158;17.118;2023-03-14T06:45:32;10.70;68.70
14877;DHT22;22152;48.158;17.118;2023-03-14T06:48:26;10.80;68.30
14877;DHT22;22152;48.158;17.118;2023-03-14T06:50:58;11.10;68.10
14877;DHT22;22152;48.158;17.118;2023-03-14T06:53:50;11.20;67.80
14877;DHT22;22152;48.158;17.118;2023-03-14T06:56:26;11.70;67.20
14877;DHT22;22152;48.158;17.118;2023-03-14T06:59:18;12.00;65.90
14877;DHT22;22152;48.158;17.118;2023-03-14T07:01:51;12.10;64.80
14877;DHT22;22152;48.158;17.118;2023-03-14T07:04:43;12.20;64.10
14877;DHT22;22152;48.158;17.118;2023-03-14T07:07:18;12.30;63.70
14877;DHT22;22152;48.158;17.118;2023-03-14T07:10:11;12.30;63.40
14877;DHT22;22152;48.158;17.118;2023-03-14T07:12:44;12.40;63.10
14877;DHT22;22152;48.158;17.118;2023-03-14T07:15:40;12.60;62.90
14877;DHT22;22152;48.158;17.118;2023-03-14T07:18:13;12.80;62.40
14877;DHT22;22152;48.158;17.118;2023-03-14T07:21:07;13.00;61.60
14877;DHT22;22152;48.158;17.118;2023-03-14T07:23:44;13.30;61.00
14877;DHT22;22152;48.158;17.118;2023-03-14T07:26:37;13.40;60.50
14877;DHT22;22152;48.158;17.118;2023-03-14T07:29:10;13.60;59.90
14877;DHT22;22152;48.158;17.118;2023-03-14T07:32:02;13.70;59.80
14877;DHT22;22152;48.158;17.118;2023-03-14T07:34:35;13.70;59.30
14877;DHT22;22152;48.158;17.118;2023-03-14T07:37:28;13.80;59.20
14877;DHT22;22152;48.158;17.118;2023-03-14T07:40:02;13.90;59.20
14877;DHT22;22152;48.158;17.118;2023-03-14T07:42:58;14.00;58.70
14877;DHT22;22152;48.158;17.118;2023-03-14T07:45:47;14.20;58.50
14877;DHT22;22152;48.158;17.118;2023-03-14T07:48:41;14.40;58.10
14877;DHT22;22152;48.158;17.118;2023-03-14T07:51:13;14.60;58.20
14877;DHT22;22152;48.158;17.118;2023-03-14T07:54:05;14.80;57.90
14877;DHT22;22152;48.158;17.118;2023-03-14T07:56:38;15.00;56.70
14877;DHT22;22152;48.158;17.118;2023-03-14T07:59:31;15.10;56.50
14877;DHT22;22152;48.158;17.118;2023-03-14T08:02:23;15.30;56.30
14877;DHT22;22152;48.158;17.118;2023-03-14T08:05:03;15.60;55.40
14877;DHT22;22152;48.158;17.118;2023-03-14T08:07:49;15.70;54.90
14877;DHT22;22152;48.158;17.118;2023-03-14T08:10:28;15.90;54.40
14877;DHT22;22152;48.158;17.118;2023-03-14T08:13:14;16.00;54.10
14877;DHT22;22152;48.158;17.118;2023-03-14T08:16:09;16.10;53.70
14877;DHT22;22152;48.158;17.118;2023-03-14T08:18:42;16.10;53.50
14877;DHT22;22152;48.158;17.118;2023-03-14T08:21:34;16.10;53.60
14877;DHT22;22152;48.158;17.118;2023-03-14T08:24:07;16.20;53.60
14877;DHT22;22152;48.158;17.118;2023-03-14T08:27:00;16.20;53.20
14877;DHT22;22152;48.158;17.118;2023-03-14T08:29:33;16.30;52.90
14877;DHT22;22152;48.158;17.118;2023-03-14T08:32:27;16.40;52.70
14877;DHT22;22152;48.158;17.118;2023-03-14T08:35:00;16.50;52.50
14877;DHT22;22152;48.158;17.118;2023-03-14T08:37:54;16.60;52.30
14877;DHT22;22152;48.158;17.118;2023-03-14T08:40:28;16.60;51.80
14877;DHT22;22152;48.158;17.118;2023-03-14T08:43:21;16.70;52.00
14877;DHT22;22152;48.158;17.118;2023-03-14T08:45:58;16.90;51.80
14877;DHT22;22152;48.158;17.118;2023-03-14T08:48:51;17.00;51.10
14877;DHT22;22152;48.158;17.118;2023-03-14T08:51:24;17.10;50.50
14877;DHT22;22152;48.158;17.118;2023-03-14T08:54:16;17.20;50.60
14877;DHT22;22152;48.158;17.118;2023-03-14T08:56:48;17.40;50.20
14877;DHT22;22152;48.158;17.118;2023-03-14T08:59:41;17.50;50.00
14877;DHT22;22152;48.158;17.118;2023-03-14T09:02:14;17.70;49.50
14877;DHT22;22152;48.158;17.118;2023-03-14T09:05:07;17.70;48.90
14877;DHT22;22152;48.158;17.118;2023-03-14T09:07:47;17.60;48.70
14877;DHT22;22152;48.158;17.118;2023-03-14T09:10:32;17.70;48.70
14877;DHT22;22152;48.158;17.118;2023-03-14T09:13:18;17.70;48.50
14877;DHT22;22152;48.158;17.118;2023-03-14T09:16:11;17.70;48.50
14877;DHT22;22152;48.158;17.118;2023-03-14T09:18:45;17.60;48.60
14877;DHT22;22152;48.158;17.118;2023-03-14T09:21:39;17.40;49.20
14877;DHT22;22152;48.158;17.118;2023-03-14T09:24:12;17.10;49.90
14877;DHT22;22152;48.158;17.118;2023-03-14T09:27:04;17.10;50.60
14877;DHT22;22152;48.158;17.118;2023-03-14T09:29:37;17.20;50.90
14877;DHT22;22152;48.158;17.118;2023-03-14T09:32:30;17.20;51.10
14877;DHT22;22152;48.158;17.118;2023-03-14T09:35:04;17.30;51.50
14877;DHT22;22152;48.158;17.118;2023-03-14T09:37:57;17.40;51.50
14877;DHT22;22152;48.158;17.118;2023-03-14T09:40:35;17.40;51.60
14877;DHT22;22152;48.158;17.118;2023-03-14T09:43:31;17.50;52.30
14877;DHT22;22152;48.158;17.118;2023-03-14T09:46:04;17.50;52.20
14877;DHT22;22152;48.158;17.118;2023-03-14T09:48:57;17.60;52.00
14877;DHT22;22152;48.158;17.118;2023-03-14T09:51:31;17.80;51.80
14877;DHT22;22152;48.158;17.118;2023-03-14T09:54:49;17.80;51.60
14877;DHT22;22152;48.158;17.118;2023-03-14T09:57:27;17.90;51.60
14877;DHT22;22152;48.158;17.118;2023-03-14T10:00:23;18.00;51.50
14877;DHT22;22152;48.158;17.118;2023-03-14T10:03:25;18.10;51.20
14877;DHT22;22152;48.158;17.118;2023-03-14T10:06:18;18.30;51.00
14877;DHT22;22152;48.158;17.118;2023-03-14T10:08:57;18.20;51.00
14877;DHT22;22152;48.158;17.118;2023-03-14T10:11:44;18.20;51.00
14877;DHT22;22152;48.158;17.118;2023-03-14T10:14:34;18.20;51.40
14877;DHT22;22152;48.158;17.118;2023-03-14T10:17:28;18.10;51.00
14877;DHT22;22152;48.158;17.118;2023-03-14T10:20:01;18.20;51.20
14877;DHT22;22152;48.158;17.118;2023-03-14T10:22:56;18.10;51.30
14877;DHT22;22152;48.158;17.118;2023-03-14T10:25:34;18.20;51.50
14877;DHT22;22152;48.158;17.118;2023-03-14T10:28:31;18.00;51.70
14877;DHT22;22152;48.158;17.118;2023-03-14T10:31:06;17.90;52.20
14877;DHT22;22152;48.158;17.118;2023-03-14T10:34:04;17.80;52.30
14877;DHT22;22152;48.158;17.118;2023-03-14T10:36:36;17.80;52.70
14877;DHT22;22152;48.158;17.118;2023-03-14T10:39:52;17.70;52.70
14877;DHT22;22152;48.158;17.118;2023-03-14T10:42:30;17.60;53.20
14877;DHT22;22152;48.158;17.118;2023-03-14T10:45:39;17.40;53.60
14877;DHT22;22152;48.158;17.118;2023-03-14T10:48:33;17.40;53.80
14877;DHT22;22152;48.158;17.118;2023-03-14T10:51:31;17.40;54.20
14877;DHT22;22152;48.158;17.118;2023-03-14T10:54:13;17.30;54.30
14877;DHT22;22152;48.158;17.118;2023-03-14T10:57:07;17.20;54.50
14877;DHT22;22152;48.158;17.118;2023-03-14T10:59:41;17.10;54.70
14877;DHT22;22152;48.158;17.118;2023-03-14T11:05:56;17.10;55.30
14877;DHT22;22152;48.158;17.118;2023-03-14T11:12:01;17.10;55.30
14877;DHT22;22152;48.158;17.118;2023-03-14T11:14:59;17.00;55.20
14877;DHT22;22152;48.158;17.118;2023-03-14T11:27:52;16.60;56.20
14877;DHT22;22152;48.158;17.118;2023-03-14T11:30:53;16.60;56.60
14877;DHT22;22152;48.158;17.118;2023-03-14T11:33:46;16.40;56.70
14877;DHT22;22152;48.158;17.118;2023-03-14T11:37:15;16.30;57.20
14877;DHT22;22152;48.158;17.118;2023-03-14T11:40:18;16.20;57.60
14877;DHT22;22152;48.158;17.118;2023-03-14T11:43:17;16.20;57.70
14877;DHT22;22152;48.158;17.118;2023-03-14T11:45:56;16.10;57.90
14877;DHT22;22152;48.158;17.118;2023-03-14T11:49:03;16.00;58.00
14877;DHT22;22152;48.158;17.118;2023-03-14T11:51:39;16.00;57.40
14877;DHT22;22152;48.158;17.118;2023-03-14T11:54:58;15.90;57.00
14877;DHT22;22152;48.158;17.118;2023-03-14T11:57:34;15.90;56.70
14877;DHT22;22152;48.158;17.118;2023-03-14T12:00:28;15.80;56.70
14877;DHT22;22152;48.158;17.118;2023-03-14T12:06:28;15.80;56.90
14877;DHT22;22152;48.158;17.118;2023-03-14T12:09:17;15.70;57.60
14877;DHT22;22152;48.158;17.118;2023-03-14T12:12:16;15.60;59.70
14877;DHT22;22152;48.158;17.118;2023-03-14T12:14:54;15.50;62.40
14877;DHT22;22152;48.158;17.118;2023-03-14T12:17:54;15.20;63.70
14877;DHT22;22152;48.158;17.118;2023-03-14T12:20:27;14.90;66.00
14877;DHT22;22152;48.158;17.118;2023-03-14T12:23:23;14.60;66.20
14877;DHT22;22152;48.158;17.118;2023-03-14T12:26:08;14.40;69.20
14877;DHT22;22152;48.158;17.118;2023-03-14T12:29:16;14.20;71.20
14877;DHT22;22152;48.158;17.118;2023-03-14T12:32:05;14.00;72.40
14877;DHT22;22152;48.158;17.118;2023-03-14T12:35:32;13.80;74.00
14877;DHT22;22152;48.158;17.118;2023-03-14T12:41:48;13.60;76.80
14877;DHT22;22152;48.158;17.118;2023-03-14T12:49:54;13.40;79.50
14877;DHT22;22152;48.158;17.118;2023-03-14T12:55:45;13.50;81.40
14877;DHT22;22152;48.158;17.118;2023-03-14T13:10:53;13.20;85.60
14877;DHT22;22152;48.158;17.118;2023-03-14T13:13:57;13.20;84.20
14877;DHT22;22152;48.158;17.118;2023-03-14T13:16:50;13.10;84.60
14877;DHT22;22152;48.158;17.118;2023-03-14T13:19:28;13.00;83.60
14877;DHT22;22152;48.158;17.118;2023-03-14T13:22:27;12.90;83.50
14877;DHT22;22152;48.158;17.118;2023-03-14T13:25:03;12.90;83.80
14877;DHT22;22152;48.158;17.118;2023-03-14T13:28:01;12.70;84.00
14877;DHT22;22152;48.158;17.118;2023-03-14T13:30:45;12.60;84.40
14877;DHT22;22152;48.158;17.118;2023-03-14T13:33:40;12.50;84.10
14877;DHT22;22152;48.158;17.118;2023-03-14T13:36:12;12.40;84.50
14877;DHT22;22152;48.158;17.118;2023-03-14T13:39:16;12.40;85.20
14877;DHT22;22152;48.158;17.118;2023-03-14T13:41:50;12.40;85.40
14877;DHT22;22152;48.158;17.118;2023-03-14T13:44:43;12.50;85.30
14877;DHT22;22152;48.158;17.118;2023-03-14T13:47:18;12.70;85.70
14877;DHT22;22152;48.158;17.118;2023-03-14T13:50:16;12.80;85.60
14877;DHT22;22152;48.158;17.118;2023-03-14T13:52:55;12.90;85.10
14877;DHT22;22152;48.158;17.118;2023-03-14T13:55:50;12.90;84.50
14877;DHT22;22152;48.158;17.118;2023-03-14T13:58:28;12.90;84.80
14877;DHT22;22152;48.158;17.118;2023-03-14T14:01:27;12.90;84.50
14877;DHT22;22152;48.158;17.118;2023-03-14T14:04:09;12.90;84.90
14877;DHT22;22152;48.158;17.118;2023-03-14T14:07:10;12.80;84.80
14877;DHT22;22152;48.158;17.118;2023-03-14T14:09:52;12.70;84.70
14877;DHT22;22152;48.158;17.118;2023-03-14T14:12:55;12.70;84.90
14877;DHT22;22152;48.158;17.118;2023-03-14T14:15:46;12.60;85.20
14877;DHT22;22152;48.158;17.118;2023-03-14T14:18:41;12.50;85.30
14877;DHT22;22152;48.158;17.118;2023-03-14T14:21:13;12.50;85.10
14877;DHT22;22152;48.158;17.118;2023-03-14T14:24:11;12.40;84.60
14877;DHT22;22152;48.158;17.118;2023-03-14T14:26:53;12.30;84.40
14877;DHT22;22152;48.158;17.118;2023-03-14T14:30:03;12.20;85.10
14877;DHT22;22152;48.158;17.118;2023-03-14T14:32:39;12.10;85.30
14877;DHT22;22152;48.158;17.118;2023-03-14T14:35:34;12.10;85.20
14877;DHT22;22152;48.158;17.118;2023-03-14T14:38:16;12.10;85.60
14877;DHT22;22152;48.158;17.118;2023-03-14T14:41:11;12.10;86.90
14877;DHT22;22152;48.158;17.118;2023-03-14T14:43:43;12.10;86.40
14877;DHT22;22152;48.158;17.118;2023-03-14T14:46:36;12.10;86.40
14877;DHT22;22152;48.158;17.118;2023-03-14T14:49:15;12.20;86.80
14877;DHT22;22152;48.158;17.118;2023-03-14T14:52:19;12.20;86.90
14877;DHT22;22152;48.158;17.118;2023-03-14T14:55:21;12.20;87.00
14877;DHT22;22152;48.158;17.118;2023-03-14T15:04:00;11.90;87.40
14877;DHT22;22152;48.158;17.118;2023-03-14T15:06:33;11.80;88.60
14877;DHT22;22152;48.158;17.118;2023-03-14T15:09:26;11.90;88.50
14877;DHT22;22152;48.158;17.118;2023-03-14T15:11:58;12.00;89.20
14877;DHT22;22152;48.158;17.118;2023-03-14T15:14:51;12.10;89.20
14877;DHT22;22152;48.158;17.118;2023-03-14T15:17:44;12.10;88.70
14877;DHT22;22152;48.158;17.118;2023-03-14T15:20:17;12.20;88.50
14877;DHT22;22152;48.158;17.118;2023-03-14T15:23:12;12.10;88.30
14877;DHT22;22152;48.158;17.118;2023-03-14T15:25:46;12.20;88.50
14877;DHT22;22152;48.158;17.118;2023-03-14T15:28:40;12.20;88.20
14877;DHT22;22152;48.158;17.118;2023-03-14T15:31:13;12.10;88.30
14877;DHT22;22152;48.158;17.118;2023-03-14T15:34:08;12.10;88.80
14877;DHT22;22152;48.158;17.118;2023-03-14T15:36:40;12.20;89.20
14877;DHT22;22152;48.158;17.118;2023-03-14T15:39:34;12.20;88.40
14877;DHT22;22152;48.158;17.118;2023-03-14T15:42:06;12.10;88.80
14877;DHT22;22152;48.158;17.118;2023-03-14T15:45:00;12.10;88.80
14877;DHT22;22152;48.158;17.118;2023-03-14T15:47:32;12.10;88.80
14877;DHT22;22152;48.158;17.118;2023-03-14T15:50:25;12.10;88.90
14877;DHT22;22152;48.158;17.118;2023-03-14T15:52:57;12.10;89.00
14877;DHT22;22152;48.158;17.118;2023-03-14T15:55:50;12.00;89.50
14877;DHT22;22152;48.158;17.118;2023-03-14T15:58:23;12.00;89.80
14877;DHT22;22152;48.158;17.118;2023-03-14T16:01:19;11.90;89.30
14877;DHT22;22152;48.158;17.118;2023-03-14T16:03:51;11.90;89.50
14877;DHT22;22152;48.158;17.118;2023-03-14T16:06:44;11.90;89.20
14877;DHT22;22152;48.158;17.118;2023-03-14T16:09:17;11.90;89.50
14877;DHT22;22152;48.158;17.118;2023-03-14T16:12:10;11.90;88.60
14877;DHT22;22152;48.158;17.118;2023-03-14T16:14:42;11.90;89.20
14877;DHT22;22152;48.158;17.118;2023-03-14T16:17:35;11.80;88.90
14877;DHT22;22152;48.158;17.118;2023-03-14T16:20:16;11.80;89.80
14877;DHT22;22152;48.158;17.118;2023-03-14T16:23:02;11.70;90.00
14877;DHT22;22152;48.158;17.118;2023-03-14T16:25:43;11.70;90.30
14877;DHT22;22152;48.158;17.118;2023-03-14T16:28:30;11.70;90.30
14877;DHT22;22152;48.158;17.118;2023-03-14T16:31:12;11.70;90.20
14877;DHT22;22152;48.158;17.118;2023-03-14T16:34:02;11.70;90.00
14877;DHT22;22152;48.158;17.118;2023-03-14T16:36:42;11.70;90.00
14877;DHT22;22152;48.158;17.118;2023-03-14T16:39:30;11.60;90.00
14877;DHT22;22152;48.158;17.118;2023-03-14T16:42:11;11.50;90.10
14877;DHT22;22152;48.158;17.118;2023-03-14T16:44:57;11.50;90.30
14877;DHT22;22152;48.158;17.118;2023-03-14T16:47:36;11.40;90.60
14877;DHT22;22152;48.158;17.118;2023-03-14T16:50:22;11.30;90.70
14877;DHT22;22152;48.158;17.118;2023-03-14T16:53:01;11.20;91.10
14877;DHT22;22152;48.158;17.118;2023-03-14T16:55:48;11.20;91.00
14877;DHT22;22152;48.158;17.118;2023-03-14T16:58:28;11.20;91.00
14877;DHT22;22152;48.158;17.118;2023-03-14T17:01:16;11.20;90.90
14877;DHT22;22152;48.158;17.118;2023-03-14T17:03:56;11.10;91.10
14877;DHT22;22152;48.158;17.118;2023-03-14T17:06:42;11.00;91.40
14877;DHT22;22152;48.158;17.118;2023-03-14T17:09:23;10.90;91.20
14877;DHT22;22152;48.158;17.118;2023-03-14T17:12:10;10.80;91.20
14877;DHT22;22152;48.158;17.118;2023-03-14T17:14:58;10.80;91.20
14877;DHT22;22152;48.158;17.118;2023-03-14T17:17:52;10.80;91.40
14877;DHT22;22152;48.158;17.118;2023-03-14T17:20:34;10.80;91.60
14877;DHT22;22152;48.158;17.118;2023-03-14T17:23:21;10.70;91.70
14877;DHT22;22152;48.158;17.118;2023-03-14T17:26:01;10.60;92.10
14877;DHT22;22152;48.158;17.118;2023-03-14T17:28:47;10.60;92.20
14877;DHT22;22152;48.158;17.118;2023-03-14T17:31:26;10.60;92.30
14877;DHT22;22152;48.158;17.118;2023-03-14T17:34:12;10.80;92.10
14877;DHT22;22152;48.158;17.118;2023-03-14T17:36:51;10.80;92.00
14877;DHT22;22152;48.158;17.118;2023-03-14T17:39:37;10.80;91.80
14877;DHT22;22152;48.158;17.118;2023-03-14T17:42:17;10.80;91.80
14877;DHT22;22152;48.158;17.118;2023-03-14T17:45:03;10.80;91.80
14877;DHT22;22152;48.158;17.118;2023-03-14T17:47:44;10.80;92.00
14877;DHT22;22152;48.158;17.118;2023-03-14T17:50:30;10.80;91.90
14877;DHT22;22152;48.158;17.118;2023-03-14T17:53:09;10.80;92.00
14877;DHT22;22152;48.158;17.118;2023-03-14T17:55:55;10.80;92.00
14877;DHT22;22152;48.158;17.118;2023-03-14T17:58:35;10.80;92.00
14877;DHT22;22152;48.158;17.118;2023-03-14T18:01:22;10.80;92.10
14877;DHT22;22152;48.158;17.118;2023-03-14T18:04:01;10.80;92.20
14877;DHT22;22152;48.158;17.118;2023-03-14T18:06:47;10.80;92.10
14877;DHT22;22152;48.158;17.118;2023-03-14T18:09:26;10.80;92.20
14877;DHT22;22152;48.158;17.118;2023-03-14T18:12:12;10.80;92.30
14877;DHT22;22152;48.158;17.118;2023-03-14T18:14:59;10.80;92.30
14877;DHT22;22152;48.158;17.118;2023-03-14T18:17:52;10.80;92.20
14877;DHT22;22152;48.158;17.118;2023-03-14T18:20:24;10.80;92.20
14877;DHT22;22152;48.158;17.118;2023-03-14T18:23:17;10.80;92.20